sensor_id;sensor_type;location;lat;lon;timestamp;P1;durP1;ratioP1;P2;durP2;ratioP2
76167;SDS011;64927;48.214;16.378;2023-12-20T00:01:00;19.75;;;9.52;;
76167;SDS011;64927;48.214;16.378;2023-12-20T00:03:26;17.77;;;7.88;;
76167;SDS011;64927;48.214;16.378;2023-12-20T00:05:51;14.07;;;8.20;;
76167;SDS011;64927;48.214;16.378;2023-12-20T00:08:17;20.92;;;8.63;;
76167;SDS011;64927;48.214;16.378;2023-12-20T00:10:43;18.25;;;7.95;;
76167;SDS011;64927;48.214;16.378;2023-12-20T00:13:09;17.88;;;9.68;;
76167;SDS011;64927;48.214;16.378;2023-12-20T00:15:38;25.48;;;10.13;;
76167;SDS011;64927;48.214;16.378;2023-12-20T00:18:03;15.57;;;9.18;;
76167;SDS011;64927;48.214;16.378;2023-12-20T00:20:32;19.23;;;9.43;;
76167;SDS011;64927;48.214;16.378;2023-12-20T00:22:57;18.65;;;9.73;;
76167;SDS011;64927;48.214;16.378;2023-12-20T00:25:23;17.58;;;8.07;;
76167;SDS011;64927;48.214;16.378;2023-12-20T00:27:51;14.70;;;8.60;;
76167;SDS011;64927;48.214;16.378;2023-12-20T00:30:17;20.13;;;8.50;;
76167;SDS011;64927;48.214;16.378;2023-12-20T00:32:43;17.25;;;9.77;;
76167;SDS011;64927;48.214;16.378;2023-12-20T00:35:14;15.80;;;8.38;;
76167;SDS011;64927;48.214;16.378;2023-12-20T00:37:40;19.05;;;7.38;;
76167;SDS011;64927;48.214;16.378;2023-12-20T00:40:08;15.20;;;6.88;;
76167;SDS011;64927;48.214;16.378;2023-12-20T00:42:34;16.67;;;7.53;;
76167;SDS011;64927;48.214;16.378;2023-12-20T00:45:03;14.95;;;8.25;;
76167;SDS011;64927;48.214;16.378;2023-12-20T00:47:30;13.18;;;6.63;;
76167;SDS011;64927;48.214;16.378;2023-12-20T00:49:59;14.57;;;6.45;;
76167;SDS011;64927;48.214;16.378;2023-12-20T00:52:25;18.55;;;8.13;;
76167;SDS011;64927;48.214;16.378;2023-12-20T00:54:51;16.95;;;7.45;;
76167;SDS011;64927;48.214;16.378;2023-12-20T00:57:17;14.35;;;7.28;;
76167;SDS011;64927;48.214;16.378;2023-12-20T00:59:45;21.98;;;8.65;;
76167;SDS011;64927;48.214;16.378;2023-12-20T01:02:13;15.52;;;7.95;;
76167;SDS011;64927;48.214;16.378;2023-12-20T01:04:38;16.50;;;7.65;;
76167;SDS011;64927;48.214;16.378;2023-12-20T01:07:04;14.50;;;7.13;;
76167;SDS011;64927;48.214;16.378;2023-12-20T01:09:29;11.77;;;7.47;;
76167;SDS011;64927;48.214;16.378;2023-12-20T01:12:00;16.40;;;8.88;;
76167;SDS011;64927;48.214;16.378;2023-12-20T01:14:26;16.08;;;8.20;;
76167;SDS011;64927;48.214;16.378;2023-12-20T01:16:54;14.40;;;7.90;;
76167;SDS011;64927;48.214;16.378;2023-12-20T01:19:19;16.08;;;7.60;;
76167;SDS011;64927;48.214;16.378;2023-12-20T01:21:45;14.85;;;7.18;;
76167;SDS011;64927;48.214;16.378;2023-12-20T01:24:11;10.88;;;6.22;;
76167;SDS011;64927;48.214;16.378;2023-12-20T01:26:39;15.68;;;8.18;;
76167;SDS011;64927;48.214;16.378;2023-12-20T01:29:04;15.98;;;6.82;;
76167;SDS011;64927;48.214;16.378;2023-12-20T01:31:32;11.52;;;6.70;;
76167;SDS011;64927;48.214;16.378;2023-12-20T01:34:00;16.38;;;8.02;;
76167;SDS011;64927;48.214;16.378;2023-12-20T01:36:25;12.55;;;6.35;;
76167;SDS011;64927;48.214;16.378;2023-12-20T01:38:52;13.45;;;7.22;;
76167;SDS011;64927;48.214;16.378;2023-12-20T01:41:20;15.48;;;7.50;;
76167;SDS011;64927;48.214;16.378;2023-12-20T01:43:48;15.85;;;6.38;;
76167;SDS011;64927;48.214;16.378;2023-12-20T01:46:15;16.90;;;6.65;;
76167;SDS011;64927;48.214;16.378;2023-12-20T01:48:41;16.50;;;8.15;;
76167;SDS011;64927;48.214;16.378;2023-12-20T01:51:07;19.17;;;8.02;;
76167;SDS011;64927;48.214;16.378;2023-12-20T01:53:33;15.10;;;8.40;;
76167;SDS011;64927;48.214;16.378;2023-12-20T01:56:02;17.35;;;7.70;;
76167;SDS011;64927;48.214;16.378;2023-12-20T01:58:27;14.02;;;7.68;;
76167;SDS011;64927;48.214;16.378;2023-12-20T02:00:53;19.63;;;9.75;;
76167;SDS011;64927;48.214;16.378;2023-12-20T02:03:22;16.02;;;9.07;;
76167;SDS011;64927;48.214;16.378;2023-12-20T02:05:48;16.13;;;8.20;;
76167;SDS011;64927;48.214;16.378;2023-12-20T02:08:16;16.17;;;7.25;;
76167;SDS011;64927;48.214;16.378;2023-12-20T02:10:41;15.40;;;7.25;;
76167;SDS011;64927;48.214;16.378;2023-12-20T02:13:07;14.85;;;8.68;;
76167;SDS011;64927;48.214;16.378;2023-12-20T02:15:33;12.43;;;7.32;;
76167;SDS011;64927;48.214;16.378;2023-12-20T02:18:01;15.18;;;8.40;;
76167;SDS011;64927;48.214;16.378;2023-12-20T02:20:27;16.20;;;7.97;;
76167;SDS011;64927;48.214;16.378;2023-12-20T02:22:53;14.25;;;8.40;;
76167;SDS011;64927;48.214;16.378;2023-12-20T02:25:19;12.13;;;6.70;;
76167;SDS011;64927;48.214;16.378;2023-12-20T02:27:44;16.42;;;7.78;;
76167;SDS011;64927;48.214;16.378;2023-12-20T02:30:10;14.05;;;7.55;;
76167;SDS011;64927;48.214;16.378;2023-12-20T02:32:39;19.90;;;8.52;;
76167;SDS011;64927;48.214;16.378;2023-12-20T02:35:05;14.43;;;7.53;;
76167;SDS011;64927;48.214;16.378;2023-12-20T02:37:33;12.07;;;7.32;;
76167;SDS011;64927;48.214;16.378;2023-12-20T02:39:59;11.07;;;7.65;;
76167;SDS011;64927;48.214;16.378;2023-12-20T02:42:25;16.25;;;7.97;;
76167;SDS011;64927;48.214;16.378;2023-12-20T02:44:52;14.35;;;6.82;;
76167;SDS011;64927;48.214;16.378;2023-12-20T02:47:20;14.73;;;6.88;;
76167;SDS011;64927;48.214;16.378;2023-12-20T02:49:49;17.27;;;7.05;;
76167;SDS011;64927;48.214;16.378;2023-12-20T02:52:14;15.15;;;7.30;;
76167;SDS011;64927;48.214;16.378;2023-12-20T02:54:42;13.57;;;7.82;;
76167;SDS011;64927;48.214;16.378;2023-12-20T02:57:08;15.63;;;6.90;;
76167;SDS011;64927;48.214;16.378;2023-12-20T02:59:33;16.45;;;7.70;;
76167;SDS011;64927;48.214;16.378;2023-12-20T03:02:01;16.90;;;7.30;;
76167;SDS011;64927;48.214;16.378;2023-12-20T03:04:32;12.63;;;6.95;;
76167;SDS011;64927;48.214;16.378;2023-12-20T03:06:57;12.20;;;6.50;;
76167;SDS011;64927;48.214;16.378;2023-12-20T03:09:23;14.85;;;6.65;;
76167;SDS011;64927;48.214;16.378;2023-12-20T03:11:51;14.20;;;6.20;;
76167;SDS011;64927;48.214;16.378;2023-12-20T03:14:16;15.00;;;7.13;;
76167;SDS011;64927;48.214;16.378;2023-12-20T03:16:46;16.05;;;7.10;;
76167;SDS011;64927;48.214;16.378;2023-12-20T03:19:15;10.13;;;5.95;;
76167;SDS011;64927;48.214;16.378;2023-12-20T03:21:41;10.38;;;6.30;;
76167;SDS011;64927;48.214;16.378;2023-12-20T03:24:06;16.35;;;7.60;;
76167;SDS011;64927;48.214;16.378;2023-12-20T03:26:32;18.35;;;6.93;;
76167;SDS011;64927;48.214;16.378;2023-12-20T03:29:00;12.88;;;7.03;;
76167;SDS011;64927;48.214;16.378;2023-12-20T03:31:26;15.52;;;6.68;;
76167;SDS011;64927;48.214;16.378;2023-12-20T03:33:51;17.50;;;7.40;;
76167;SDS011;64927;48.214;16.378;2023-12-20T03:36:19;13.13;;;5.82;;
76167;SDS011;64927;48.214;16.378;2023-12-20T03:38:45;14.55;;;7.18;;
76167;SDS011;64927;48.214;16.378;2023-12-20T03:41:11;13.73;;;6.40;;
76167;SDS011;64927;48.214;16.378;2023-12-20T03:43:37;18.95;;;7.72;;
76167;SDS011;64927;48.214;16.378;2023-12-20T03:46:02;15.32;;;7.25;;
76167;SDS011;64927;48.214;16.378;2023-12-20T03:48:29;14.95;;;6.63;;
76167;SDS011;64927;48.214;16.378;2023-12-20T03:50:56;13.55;;;6.95;;
76167;SDS011;64927;48.214;16.378;2023-12-20T03:53:22;11.70;;;6.97;;
76167;SDS011;64927;48.214;16.378;2023-12-20T03:55:47;12.68;;;6.68;;
76167;SDS011;64927;48.214;16.378;2023-12-20T03:58:13;12.55;;;6.80;;
76167;SDS011;64927;48.214;16.378;2023-12-20T04:00:39;20.77;;;8.07;;
76167;SDS011;64927;48.214;16.378;2023-12-20T04:03:04;13.90;;;7.63;;
76167;SDS011;64927;48.214;16.378;2023-12-20T04:05:30;12.75;;;7.35;;
76167;SDS011;64927;48.214;16.378;2023-12-20T04:07:59;10.98;;;6.00;;
76167;SDS011;64927;48.214;16.378;2023-12-20T04:10:26;12.85;;;7.35;;
76167;SDS011;64927;48.214;16.378;2023-12-20T04:12:52;17.65;;;7.43;;
76167;SDS011;64927;48.214;16.378;2023-12-20T04:15:21;13.32;;;7.32;;
76167;SDS011;64927;48.214;16.378;2023-12-20T04:17:46;14.52;;;8.05;;
76167;SDS011;64927;48.214;16.378;2023-12-20T04:20:12;17.17;;;8.52;;
76167;SDS011;64927;48.214;16.378;2023-12-20T04:22:37;17.90;;;8.48;;
76167;SDS011;64927;48.214;16.378;2023-12-20T04:25:03;13.32;;;8.07;;
76167;SDS011;64927;48.214;16.378;2023-12-20T04:27:29;19.40;;;7.63;;
76167;SDS011;64927;48.214;16.378;2023-12-20T04:29:55;16.73;;;6.70;;
76167;SDS011;64927;48.214;16.378;2023-12-20T04:32:20;17.45;;;8.32;;
76167;SDS011;64927;48.214;16.378;2023-12-20T04:34:48;18.38;;;7.97;;
76167;SDS011;64927;48.214;16.378;2023-12-20T04:37:14;12.13;;;6.53;;
76167;SDS011;64927;48.214;16.378;2023-12-20T04:39:39;14.60;;;7.68;;
76167;SDS011;64927;48.214;16.378;2023-12-20T04:42:07;12.13;;;7.35;;
76167;SDS011;64927;48.214;16.378;2023-12-20T04:44:33;13.30;;;6.93;;
76167;SDS011;64927;48.214;16.378;2023-12-20T04:47:01;15.32;;;8.23;;
76167;SDS011;64927;48.214;16.378;2023-12-20T04:49:27;16.45;;;7.88;;
76167;SDS011;64927;48.214;16.378;2023-12-20T04:51:52;14.63;;;6.78;;
76167;SDS011;64927;48.214;16.378;2023-12-20T04:54:18;18.92;;;7.78;;
76167;SDS011;64927;48.214;16.378;2023-12-20T04:56:44;12.85;;;6.88;;
76167;SDS011;64927;48.214;16.378;2023-12-20T04:59:10;14.45;;;7.55;;
76167;SDS011;64927;48.214;16.378;2023-12-20T05:01:38;10.55;;;6.13;;
76167;SDS011;64927;48.214;16.378;2023-12-20T05:04:03;10.75;;;7.20;;
76167;SDS011;64927;48.214;16.378;2023-12-20T05:06:29;11.85;;;5.85;;
76167;SDS011;64927;48.214;16.378;2023-12-20T05:08:55;14.02;;;7.10;;
76167;SDS011;64927;48.214;16.378;2023-12-20T05:11:20;11.57;;;6.47;;
76167;SDS011;64927;48.214;16.378;2023-12-20T05:13:46;13.15;;;6.47;;
76167;SDS011;64927;48.214;16.378;2023-12-20T05:16:11;12.65;;;6.50;;
76167;SDS011;64927;48.214;16.378;2023-12-20T05:18:39;16.85;;;6.90;;
76167;SDS011;64927;48.214;16.378;2023-12-20T05:21:07;12.10;;;6.18;;
76167;SDS011;64927;48.214;16.378;2023-12-20T05:23:35;10.65;;;5.60;;
76167;SDS011;64927;48.214;16.378;2023-12-20T05:26:00;10.68;;;5.32;;
76167;SDS011;64927;48.214;16.378;2023-12-20T05:28:28;9.73;;;5.22;;
76167;SDS011;64927;48.214;16.378;2023-12-20T05:30:53;5.85;;;3.95;;
76167;SDS011;64927;48.214;16.378;2023-12-20T05:33:22;11.38;;;3.60;;
76167;SDS011;64927;48.214;16.378;2023-12-20T05:35:47;4.22;;;2.25;;
76167;SDS011;64927;48.214;16.378;2023-12-20T05:38:13;7.18;;;2.75;;
76167;SDS011;64927;48.214;16.378;2023-12-20T05:40:38;1.92;;;1.40;;
76167;SDS011;64927;48.214;16.378;2023-12-20T05:43:04;3.58;;;1.50;;
76167;SDS011;64927;48.214;16.378;2023-12-20T05:45:29;1.30;;;1.20;;
76167;SDS011;64927;48.214;16.378;2023-12-20T05:47:55;3.63;;;1.63;;
76167;SDS011;64927;48.214;16.378;2023-12-20T05:50:20;3.28;;;1.63;;
76167;SDS011;64927;48.214;16.378;2023-12-20T05:52:46;3.13;;;1.45;;
76167;SDS011;64927;48.214;16.378;2023-12-20T05:55:12;3.05;;;2.20;;
76167;SDS011;64927;48.214;16.378;2023-12-20T05:57:37;1.38;;;0.93;;
76167;SDS011;64927;48.214;16.378;2023-12-20T06:00:03;3.75;;;1.50;;
76167;SDS011;64927;48.214;16.378;2023-12-20T06:02:31;3.70;;;1.30;;
76167;SDS011;64927;48.214;16.378;2023-12-20T06:04:57;1.40;;;1.30;;
76167;SDS011;64927;48.214;16.378;2023-12-20T06:07:23;4.28;;;1.15;;
76167;SDS011;64927;48.214;16.378;2023-12-20T06:09:48;3.17;;;1.10;;
76167;SDS011;64927;48.214;16.378;2023-12-20T06:12:14;2.67;;;1.02;;
76167;SDS011;64927;48.214;16.378;2023-12-20T06:14:40;1.70;;;1.17;;
76167;SDS011;64927;48.214;16.378;2023-12-20T06:17:08;2.92;;;1.55;;
76167;SDS011;64927;48.214;16.378;2023-12-20T06:19:34;8.43;;;1.83;;
76167;SDS011;64927;48.214;16.378;2023-12-20T06:21:59;1.80;;;1.10;;
76167;SDS011;64927;48.214;16.378;2023-12-20T06:24:25;1.60;;;1.13;;
76167;SDS011;64927;48.214;16.378;2023-12-20T06:26:53;0.90;;;0.75;;
76167;SDS011;64927;48.214;16.378;2023-12-20T06:29:20;2.28;;;1.25;;
76167;SDS011;64927;48.214;16.378;2023-12-20T06:31:46;1.80;;;1.38;;
76167;SDS011;64927;48.214;16.378;2023-12-20T06:34:13;1.60;;;1.00;;
76167;SDS011;64927;48.214;16.378;2023-12-20T06:36:39;2.28;;;1.50;;
76167;SDS011;64927;48.214;16.378;2023-12-20T06:39:05;2.92;;;1.20;;
76167;SDS011;64927;48.214;16.378;2023-12-20T06:41:30;1.83;;;1.05;;
76167;SDS011;64927;48.214;16.378;2023-12-20T06:43:56;3.58;;;1.58;;
76167;SDS011;64927;48.214;16.378;2023-12-20T06:46:21;1.58;;;1.42;;
76167;SDS011;64927;48.214;16.378;2023-12-20T06:48:47;1.75;;;1.00;;
76167;SDS011;64927;48.214;16.378;2023-12-20T06:51:14;2.55;;;1.15;;
76167;SDS011;64927;48.214;16.378;2023-12-20T06:53:41;2.40;;;1.27;;
76167;SDS011;64927;48.214;16.378;2023-12-20T06:56:07;1.73;;;0.90;;
76167;SDS011;64927;48.214;16.378;2023-12-20T06:58:33;1.85;;;1.05;;
76167;SDS011;64927;48.214;16.378;2023-12-20T07:00:59;2.00;;;1.17;;
76167;SDS011;64927;48.214;16.378;2023-12-20T07:03:27;3.65;;;1.27;;
76167;SDS011;64927;48.214;16.378;2023-12-20T07:05:53;2.10;;;1.20;;
76167;SDS011;64927;48.214;16.378;2023-12-20T07:08:18;1.33;;;0.88;;
76167;SDS011;64927;48.214;16.378;2023-12-20T07:10:44;2.22;;;0.98;;
76167;SDS011;64927;48.214;16.378;2023-12-20T07:13:12;0.52;;;0.52;;
76167;SDS011;64927;48.214;16.378;2023-12-20T07:15:38;1.38;;;0.80;;
76167;SDS011;64927;48.214;16.378;2023-12-20T07:18:03;2.20;;;1.15;;
76167;SDS011;64927;48.214;16.378;2023-12-20T07:20:30;1.85;;;1.13;;
76167;SDS011;64927;48.214;16.378;2023-12-20T07:22:58;2.83;;;1.52;;
76167;SDS011;64927;48.214;16.378;2023-12-20T07:25:24;2.05;;;1.20;;
76167;SDS011;64927;48.214;16.378;2023-12-20T07:27:50;3.42;;;1.30;;
76167;SDS011;64927;48.214;16.378;2023-12-20T07:30:15;2.08;;;1.10;;
76167;SDS011;64927;48.214;16.378;2023-12-20T07:32:41;2.70;;;1.20;;
76167;SDS011;64927;48.214;16.378;2023-12-20T07:35:07;2.08;;;1.25;;
76167;SDS011;64927;48.214;16.378;2023-12-20T07:37:35;2.42;;;1.15;;
76167;SDS011;64927;48.214;16.378;2023-12-20T07:40:03;4.13;;;1.80;;
76167;SDS011;64927;48.214;16.378;2023-12-20T07:42:29;3.97;;;1.85;;
76167;SDS011;64927;48.214;16.378;2023-12-20T07:44:57;2.75;;;1.58;;
76167;SDS011;64927;48.214;16.378;2023-12-20T07:47:23;3.47;;;1.42;;
76167;SDS011;64927;48.214;16.378;2023-12-20T07:49:50;3.33;;;1.67;;
76167;SDS011;64927;48.214;16.378;2023-12-20T07:52:19;2.25;;;1.38;;
76167;SDS011;64927;48.214;16.378;2023-12-20T07:54:45;2.88;;;1.30;;
76167;SDS011;64927;48.214;16.378;2023-12-20T07:57:11;4.65;;;1.52;;
76167;SDS011;64927;48.214;16.378;2023-12-20T07:59:37;4.40;;;1.20;;
76167;SDS011;64927;48.214;16.378;2023-12-20T08:02:05;1.73;;;1.10;;
76167;SDS011;64927;48.214;16.378;2023-12-20T08:04:33;3.30;;;1.40;;
76167;SDS011;64927;48.214;16.378;2023-12-20T08:06:59;3.55;;;1.50;;
76167;SDS011;64927;48.214;16.378;2023-12-20T08:09:25;2.95;;;1.70;;
76167;SDS011;64927;48.214;16.378;2023-12-20T08:11:54;2.13;;;1.30;;
76167;SDS011;64927;48.214;16.378;2023-12-20T08:14:19;2.90;;;1.25;;
76167;SDS011;64927;48.214;16.378;2023-12-20T08:16:46;1.35;;;0.90;;
76167;SDS011;64927;48.214;16.378;2023-12-20T08:19:12;1.02;;;0.70;;
76167;SDS011;64927;48.214;16.378;2023-12-20T08:21:40;1.13;;;0.88;;
76167;SDS011;64927;48.214;16.378;2023-12-20T08:24:06;3.13;;;0.98;;
76167;SDS011;64927;48.214;16.378;2023-12-20T08:26:32;0.80;;;0.80;;
76167;SDS011;64927;48.214;16.378;2023-12-20T08:28:58;2.65;;;1.13;;
76167;SDS011;64927;48.214;16.378;2023-12-20T08:31:23;3.40;;;1.48;;
76167;SDS011;64927;48.214;16.378;2023-12-20T08:33:49;4.50;;;1.58;;
76167;SDS011;64927;48.214;16.378;2023-12-20T08:36:18;4.10;;;1.52;;
76167;SDS011;64927;48.214;16.378;2023-12-20T08:38:46;1.73;;;1.33;;
76167;SDS011;64927;48.214;16.378;2023-12-20T08:41:12;2.88;;;1.00;;
76167;SDS011;64927;48.214;16.378;2023-12-20T08:43:40;2.65;;;1.60;;
76167;SDS011;64927;48.214;16.378;2023-12-20T08:46:08;1.58;;;0.90;;
76167;SDS011;64927;48.214;16.378;2023-12-20T08:48:37;2.30;;;1.40;;
76167;SDS011;64927;48.214;16.378;2023-12-20T08:51:03;1.10;;;0.82;;
76167;SDS011;64927;48.214;16.378;2023-12-20T08:53:32;1.73;;;0.82;;
76167;SDS011;64927;48.214;16.378;2023-12-20T08:55:58;2.65;;;1.95;;
76167;SDS011;64927;48.214;16.378;2023-12-20T08:58:26;2.40;;;1.20;;
76167;SDS011;64927;48.214;16.378;2023-12-20T09:00:52;2.35;;;1.17;;
76167;SDS011;64927;48.214;16.378;2023-12-20T09:03:18;2.55;;;0.80;;
76167;SDS011;64927;48.214;16.378;2023-12-20T09:05:43;3.17;;;1.15;;
76167;SDS011;64927;48.214;16.378;2023-12-20T09:08:09;1.52;;;1.00;;
76167;SDS011;64927;48.214;16.378;2023-12-20T09:10:35;1.65;;;1.05;;
76167;SDS011;64927;48.214;16.378;2023-12-20T09:13:04;1.85;;;0.98;;
76167;SDS011;64927;48.214;16.378;2023-12-20T09:15:30;2.33;;;1.08;;
76167;SDS011;64927;48.214;16.378;2023-12-20T09:17:55;1.60;;;1.02;;
76167;SDS011;64927;48.214;16.378;2023-12-20T09:20:21;1.98;;;1.50;;
76167;SDS011;64927;48.214;16.378;2023-12-20T09:22:49;5.97;;;1.80;;
76167;SDS011;64927;48.214;16.378;2023-12-20T09:25:22;23.58;;;9.90;;
76167;SDS011;64927;48.214;16.378;2023-12-20T09:27:50;1.75;;;0.70;;
76167;SDS011;64927;48.214;16.378;2023-12-20T09:30:17;1.73;;;1.27;;
76167;SDS011;64927;48.214;16.378;2023-12-20T09:32:43;4.45;;;1.00;;
76167;SDS011;64927;48.214;16.378;2023-12-20T09:35:11;0.75;;;0.70;;
76167;SDS011;64927;48.214;16.378;2023-12-20T09:37:36;0.75;;;0.43;;
76167;SDS011;64927;48.214;16.378;2023-12-20T09:40:06;1.23;;;0.70;;
76167;SDS011;64927;48.214;16.378;2023-12-20T09:42:45;0.75;;;0.47;;
76167;SDS011;64927;48.214;16.378;2023-12-20T09:45:23;1.10;;;0.50;;
76167;SDS011;64927;48.214;16.378;2023-12-20T09:47:53;2.70;;;0.55;;
76167;SDS011;64927;48.214;16.378;2023-12-20T09:50:22;2.28;;;0.68;;
76167;SDS011;64927;48.214;16.378;2023-12-20T09:52:49;1.48;;;0.68;;
76167;SDS011;64927;48.214;16.378;2023-12-20T09:55:19;5.82;;;0.60;;
76167;SDS011;64927;48.214;16.378;2023-12-20T09:57:53;1.45;;;0.68;;
76167;SDS011;64927;48.214;16.378;2023-12-20T10:00:18;1.40;;;0.50;;
76167;SDS011;64927;48.214;16.378;2023-12-20T10:02:45;1.45;;;0.90;;
76167;SDS011;64927;48.214;16.378;2023-12-20T10:05:22;0.55;;;0.52;;
76167;SDS011;64927;48.214;16.378;2023-12-20T10:07:55;1.23;;;0.93;;
76167;SDS011;64927;48.214;16.378;2023-12-20T10:10:21;1.52;;;0.73;;
76167;SDS011;64927;48.214;16.378;2023-12-20T10:13:03;1.42;;;0.75;;
76167;SDS011;64927;48.214;16.378;2023-12-20T10:15:34;2.03;;;1.35;;
76167;SDS011;64927;48.214;16.378;2023-12-20T10:18:02;1.25;;;1.08;;
76167;SDS011;64927;48.214;16.378;2023-12-20T10:20:28;1.00;;;0.50;;
76167;SDS011;64927;48.214;16.378;2023-12-20T10:22:55;0.70;;;0.52;;
76167;SDS011;64927;48.214;16.378;2023-12-20T10:25:21;2.22;;;1.30;;
76167;SDS011;64927;48.214;16.378;2023-12-20T10:27:47;1.85;;;0.80;;
76167;SDS011;64927;48.214;16.378;2023-12-20T10:30:14;0.63;;;0.43;;
76167;SDS011;64927;48.214;16.378;2023-12-20T10:32:40;0.75;;;0.68;;
76167;SDS011;64927;48.214;16.378;2023-12-20T10:35:06;1.10;;;0.70;;
76167;SDS011;64927;48.214;16.378;2023-12-20T10:37:41;1.88;;;0.77;;
76167;SDS011;64927;48.214;16.378;2023-12-20T10:40:07;1.02;;;0.70;;
76167;SDS011;64927;48.214;16.378;2023-12-20T10:42:33;2.47;;;1.38;;
76167;SDS011;64927;48.214;16.378;2023-12-20T10:45:02;1.50;;;1.15;;
76167;SDS011;64927;48.214;16.378;2023-12-20T10:47:29;0.93;;;0.80;;
76167;SDS011;64927;48.214;16.378;2023-12-20T10:49:59;1.58;;;1.10;;
76167;SDS011;64927;48.214;16.378;2023-12-20T10:52:27;1.92;;;1.13;;
76167;SDS011;64927;48.214;16.378;2023-12-20T10:54:56;0.60;;;0.57;;
76167;SDS011;64927;48.214;16.378;2023-12-20T10:57:22;1.30;;;0.70;;
76167;SDS011;64927;48.214;16.378;2023-12-20T10:59:51;1.00;;;0.73;;
76167;SDS011;64927;48.214;16.378;2023-12-20T11:02:19;2.13;;;0.90;;
76167;SDS011;64927;48.214;16.378;2023-12-20T11:10:09;1.45;;;0.85;;
76167;SDS011;64927;48.214;16.378;2023-12-20T11:12:46;3.85;;;1.23;;
76167;SDS011;64927;48.214;16.378;2023-12-20T11:15:16;1.00;;;0.90;;
76167;SDS011;64927;48.214;16.378;2023-12-20T11:17:44;1.40;;;0.65;;
76167;SDS011;64927;48.214;16.378;2023-12-20T11:20:19;0.95;;;0.55;;
76167;SDS011;64927;48.214;16.378;2023-12-20T11:22:52;1.13;;;0.90;;
76167;SDS011;64927;48.214;16.378;2023-12-20T11:25:18;2.03;;;1.00;;
76167;SDS011;64927;48.214;16.378;2023-12-20T11:27:44;1.70;;;0.88;;
76167;SDS011;64927;48.214;16.378;2023-12-20T11:30:45;1.85;;;1.08;;
76167;SDS011;64927;48.214;16.378;2023-12-20T11:38:07;1.08;;;0.63;;
76167;SDS011;64927;48.214;16.378;2023-12-20T11:40:33;2.25;;;1.15;;
76167;SDS011;64927;48.214;16.378;2023-12-20T11:43:00;0.40;;;0.40;;
76167;SDS011;64927;48.214;16.378;2023-12-20T11:45:25;1.48;;;0.88;;
76167;SDS011;64927;48.214;16.378;2023-12-20T11:47:52;0.57;;;0.57;;
76167;SDS011;64927;48.214;16.378;2023-12-20T11:50:21;0.60;;;0.45;;
76167;SDS011;64927;48.214;16.378;2023-12-20T11:52:48;2.67;;;1.67;;
76167;SDS011;64927;48.214;16.378;2023-12-20T11:55:14;1.75;;;1.52;;
76167;SDS011;64927;48.214;16.378;2023-12-20T11:57:42;0.75;;;0.45;;
76167;SDS011;64927;48.214;16.378;2023-12-20T12:00:09;1.13;;;0.63;;
76167;SDS011;64927;48.214;16.378;2023-12-20T12:02:38;1.02;;;0.75;;
76167;SDS011;64927;48.214;16.378;2023-12-20T12:05:06;1.67;;;0.70;;
76167;SDS011;64927;48.214;16.378;2023-12-20T12:07:32;0.30;;;0.30;;
76167;SDS011;64927;48.214;16.378;2023-12-20T12:09:58;6.13;;;3.05;;
76167;SDS011;64927;48.214;16.378;2023-12-20T12:12:24;1.90;;;1.30;;
76167;SDS011;64927;48.214;16.378;2023-12-20T12:14:55;1.45;;;0.75;;
76167;SDS011;64927;48.214;16.378;2023-12-20T12:17:24;1.17;;;0.80;;
76167;SDS011;64927;48.214;16.378;2023-12-20T12:19:50;0.93;;;0.60;;
76167;SDS011;64927;48.214;16.378;2023-12-20T12:22:26;0.95;;;0.75;;
76167;SDS011;64927;48.214;16.378;2023-12-20T12:24:52;1.15;;;0.65;;
76167;SDS011;64927;48.214;16.378;2023-12-20T12:27:19;0.30;;;0.30;;
76167;SDS011;64927;48.214;16.378;2023-12-20T12:30:03;1.23;;;0.80;;
76167;SDS011;64927;48.214;16.378;2023-12-20T12:32:32;0.40;;;0.40;;
76167;SDS011;64927;48.214;16.378;2023-12-20T12:34:57;1.25;;;0.60;;
76167;SDS011;64927;48.214;16.378;2023-12-20T12:37:23;3.15;;;1.27;;
76167;SDS011;64927;48.214;16.378;2023-12-20T12:39:49;0.90;;;0.60;;
76167;SDS011;64927;48.214;16.378;2023-12-20T12:42:15;1.08;;;0.80;;
76167;SDS011;64927;48.214;16.378;2023-12-20T12:44:40;1.23;;;0.80;;
76167;SDS011;64927;48.214;16.378;2023-12-20T12:47:06;0.65;;;0.45;;
76167;SDS011;64927;48.214;16.378;2023-12-20T12:49:32;2.38;;;0.50;;
76167;SDS011;64927;48.214;16.378;2023-12-20T12:51:58;1.20;;;0.70;;
76167;SDS011;64927;48.214;16.378;2023-12-20T12:54:25;0.93;;;0.68;;
76167;SDS011;64927;48.214;16.378;2023-12-20T12:56:53;1.27;;;0.50;;
76167;SDS011;64927;48.214;16.378;2023-12-20T12:59:21;1.02;;;0.60;;
76167;SDS011;64927;48.214;16.378;2023-12-20T13:01:46;1.30;;;0.75;;
76167;SDS011;64927;48.214;16.378;2023-12-20T13:04:13;2.53;;;1.40;;
76167;SDS011;64927;48.214;16.378;2023-12-20T13:06:38;4.28;;;1.15;;
76167;SDS011;64927;48.214;16.378;2023-12-20T13:09:05;4.85;;;1.25;;
76167;SDS011;64927;48.214;16.378;2023-12-20T13:11:34;0.60;;;0.50;;
76167;SDS011;64927;48.214;16.378;2023-12-20T13:14:00;2.05;;;1.00;;
76167;SDS011;64927;48.214;16.378;2023-12-20T13:16:26;1.67;;;1.05;;
76167;SDS011;64927;48.214;16.378;2023-12-20T13:18:52;3.97;;;1.35;;
76167;SDS011;64927;48.214;16.378;2023-12-20T13:21:17;1.92;;;0.60;;
76167;SDS011;64927;48.214;16.378;2023-12-20T13:23:43;1.45;;;0.60;;
76167;SDS011;64927;48.214;16.378;2023-12-20T13:26:09;10.65;;;4.03;;
76167;SDS011;64927;48.214;16.378;2023-12-20T13:28:39;1.50;;;1.10;;
76167;SDS011;64927;48.214;16.378;2023-12-20T13:31:04;0.63;;;0.50;;
76167;SDS011;64927;48.214;16.378;2023-12-20T13:33:30;0.82;;;0.30;;
76167;SDS011;64927;48.214;16.378;2023-12-20T13:35:58;0.70;;;0.70;;
76167;SDS011;64927;48.214;16.378;2023-12-20T13:38:26;1.00;;;0.40;;
76167;SDS011;64927;48.214;16.378;2023-12-20T13:40:54;0.40;;;0.40;;
76167;SDS011;64927;48.214;16.378;2023-12-20T13:43:20;0.85;;;0.65;;
76167;SDS011;64927;48.214;16.378;2023-12-20T13:45:47;1.95;;;0.60;;
76167;SDS011;64927;48.214;16.378;2023-12-20T13:48:15;0.90;;;0.82;;
76167;SDS011;64927;48.214;16.378;2023-12-20T13:50:43;0.57;;;0.38;;
76167;SDS011;64927;48.214;16.378;2023-12-20T13:53:09;1.17;;;0.55;;
76167;SDS011;64927;48.214;16.378;2023-12-20T13:55:34;0.32;;;0.32;;
76167;SDS011;64927;48.214;16.378;2023-12-20T13:58:00;0.40;;;0.40;;
76167;SDS011;64927;48.214;16.378;2023-12-20T14:00:26;1.30;;;0.50;;
76167;SDS011;64927;48.214;16.378;2023-12-20T14:02:51;1.02;;;1.00;;
76167;SDS011;64927;48.214;16.378;2023-12-20T14:05:19;4.47;;;0.57;;
76167;SDS011;64927;48.214;16.378;2023-12-20T14:07:48;0.60;;;0.60;;
76167;SDS011;64927;48.214;16.378;2023-12-20T14:10:16;1.00;;;0.55;;
76167;SDS011;64927;48.214;16.378;2023-12-20T14:12:41;0.55;;;0.40;;
76167;SDS011;64927;48.214;16.378;2023-12-20T14:15:09;0.40;;;0.40;;
76167;SDS011;64927;48.214;16.378;2023-12-20T14:17:39;2.95;;;0.93;;
76167;SDS011;64927;48.214;16.378;2023-12-20T14:20:07;0.95;;;0.63;;
76167;SDS011;64927;48.214;16.378;2023-12-20T14:22:38;0.98;;;0.75;;
76167;SDS011;64927;48.214;16.378;2023-12-20T14:25:10;0.55;;;0.40;;
76167;SDS011;64927;48.214;16.378;2023-12-20T14:27:37;0.57;;;0.30;;
76167;SDS011;64927;48.214;16.378;2023-12-20T14:30:03;0.55;;;0.40;;
76167;SDS011;64927;48.214;16.378;2023-12-20T14:32:34;0.80;;;0.30;;
76167;SDS011;64927;48.214;16.378;2023-12-20T14:35:05;1.45;;;0.70;;
76167;SDS011;64927;48.214;16.378;2023-12-20T14:37:31;3.42;;;0.80;;